Los Lunas PMC

2021-01-22 05:00:00

  • imperial
Date Time Air Temperature Relative Humidity Wind Speed Wind Dir. Precipitation Solar Radiation Soil Temperature Soil Temperature Soil Temperature Soil Temperature Soil Temperature
5cm 10cm 20cm 50cm 100cm
US/Mountain F % MPH deg in MJ/m^2 F F F F F
max min avg max min max avg avg
2021-01-21 07:00:00 30.9 30.0 30.4 93.0 92.0 2.2 0.3 228.0 0.00 0.0006840 36.0 37.2 38.5 42.6 47.8
2021-01-21 08:00:00 30.9 30.6 30.7 92.0 91.0 2.4 0.5 133.0 0.00 0.0499680 36.0 37.0 38.3 42.6 47.8
2021-01-21 09:00:00 37.2 30.6 33.8 91.0 74.0 5.6 1.3 113.0 0.00 0.4284000 35.8 37.2 38.3 42.4 48.0
2021-01-21 10:00:00 42.3 37.2 39.2 74.0 62.0 8.6 4.1 28.0 0.00 1.2506400 36.3 37.0 38.3 42.6 48.0
2021-01-21 11:00:00 46.9 42.3 43.7 62.0 54.0 7.4 4.0 5.0 0.00 1.7827200 37.6 37.2 38.3 42.6 48.0
2021-01-21 12:00:00 50.4 46.9 48.2 54.0 47.0 9.6 3.6 31.0 0.00 2.0746800 39.6 37.8 38.5 42.6 48.0
2021-01-21 13:00:00 55.6 50.4 52.0 47.0 39.0 6.7 2.4 59.0 0.00 2.1564000 41.7 39.0 38.8 42.6 48.0
2021-01-21 14:00:00 55.6 54.0 54.9 39.0 38.0 7.6 2.0 67.0 0.00 2.0034000 43.5 40.3 39.2 42.6 48.0
2021-01-21 15:00:00 55.6 54.9 55.2 38.0 36.0 9.9 4.0 16.0 0.00 1.6156800 45.0 41.5 39.7 42.6 48.0
2021-01-21 16:00:00 56.3 54.9 55.6 37.0 35.0 10.1 3.4 0.0 0.00 0.7884000 45.1 42.3 40.3 42.6 48.0
2021-01-21 17:00:00 55.9 54.0 55.0 38.0 36.0 7.8 2.7 43.0 0.00 0.2123640 -147.8 -147.8 -147.8 -147.8 -147.8
2021-01-21 18:00:00 54.0 46.8 51.1 49.0 38.0 14.0 4.0 14.0 0.00 0.0111240 44.4 42.8 41.0 42.4 47.8
2021-01-21 19:00:00 47.1 43.7 46.0 53.0 49.0 3.9 0.4 85.0 0.00 0.0000720 43.0 42.6 41.2 42.6 47.8
2021-01-21 20:00:00 43.7 38.1 40.6 62.0 53.0 1.9 0.4 144.0 0.00 0.0002880 41.9 42.3 41.2 42.4 47.8
2021-01-21 21:00:00 38.5 34.7 37.4 69.0 62.0 2.4 0.6 171.0 0.00 0.0003960 41.0 41.7 41.2 42.6 47.8
2021-01-21 22:00:00 34.7 32.0 33.1 77.0 69.0 0.7 0.0 73.0 0.00 0.0006120 39.9 41.5 41.0 42.6 47.8
2021-01-21 23:00:00 32.2 27.0 30.0 80.0 72.0 1.6 0.2 166.0 0.00 0.0006480 39.2 41.0 40.8 42.6 47.8
2021-01-22 00:00:00 27.7 25.9 27.0 82.0 77.0 1.2 0.1 212.0 0.00 0.0005760 38.3 40.5 40.5 42.8 47.8
2021-01-22 01:00:00 27.3 23.0 25.7 84.0 77.0 2.9 0.5 247.0 0.00 0.0005040 37.4 39.7 40.3 42.8 47.8
2021-01-22 02:00:00 25.2 23.0 24.6 84.0 77.0 2.4 0.2 0.0 0.00 0.0004320 37.0 39.2 39.9 42.8 47.8
2021-01-22 03:00:00 24.8 22.5 23.7 86.0 81.0 1.5 0.2 7.0 0.00 0.0003600 36.3 39.2 39.7 42.8 47.8
2021-01-22 04:00:00 22.8 21.9 22.5 90.0 84.0 1.7 0.6 250.0 0.00 0.0003240 36.0 38.5 39.4 43.0 47.8
2021-01-22 05:00:00 23.2 20.5 22.5 91.0 86.0 1.0 0.1 248.0 0.00 0.0002880 35.4 38.1 39.2 43.0 47.8

Data is presented as is, with no certification of correctness. DO NOT USE IN LEGAL PROCEEDINGS.